sensor_id;sensor_type;location;lat;lon;timestamp;P1;durP1;ratioP1;P2;durP2;ratioP2
59207;SDS011;44977;53.132;6.408;2023-02-04T00:01:34;34.22;;;7.55;;
59207;SDS011;44977;53.132;6.408;2023-02-04T00:06:35;31.35;;;7.40;;
59207;SDS011;44977;53.132;6.408;2023-02-04T00:11:35;32.97;;;7.55;;
59207;SDS011;44977;53.132;6.408;2023-02-04T00:16:36;27.98;;;7.18;;
59207;SDS011;44977;53.132;6.408;2023-02-04T00:21:37;26.45;;;7.05;;
59207;SDS011;44977;53.132;6.408;2023-02-04T00:26:37;32.80;;;7.60;;
59207;SDS011;44977;53.132;6.408;2023-02-04T00:31:38;30.70;;;6.93;;
59207;SDS011;44977;53.132;6.408;2023-02-04T00:36:39;31.05;;;6.88;;
59207;SDS011;44977;53.132;6.408;2023-02-04T00:41:39;29.48;;;7.32;;
59207;SDS011;44977;53.132;6.408;2023-02-04T00:46:40;30.27;;;7.53;;
59207;SDS011;44977;53.132;6.408;2023-02-04T00:51:41;37.63;;;7.40;;
59207;SDS011;44977;53.132;6.408;2023-02-04T00:56:45;39.17;;;7.90;;
59207;SDS011;44977;53.132;6.408;2023-02-04T01:01:46;37.80;;;7.70;;
59207;SDS011;44977;53.132;6.408;2023-02-04T01:06:46;34.72;;;7.88;;
59207;SDS011;44977;53.132;6.408;2023-02-04T01:11:47;41.55;;;8.27;;
59207;SDS011;44977;53.132;6.408;2023-02-04T01:16:48;30.13;;;7.40;;
59207;SDS011;44977;53.132;6.408;2023-02-04T01:21:48;32.45;;;7.00;;
59207;SDS011;44977;53.132;6.408;2023-02-04T01:26:49;32.75;;;7.43;;
59207;SDS011;44977;53.132;6.408;2023-02-04T01:31:50;27.77;;;6.78;;
59207;SDS011;44977;53.132;6.408;2023-02-04T01:36:50;33.67;;;7.28;;
59207;SDS011;44977;53.132;6.408;2023-02-04T01:41:51;31.33;;;7.65;;
59207;SDS011;44977;53.132;6.408;2023-02-04T01:46:52;36.88;;;8.82;;
59207;SDS011;44977;53.132;6.408;2023-02-04T01:51:53;32.20;;;8.07;;
59207;SDS011;44977;53.132;6.408;2023-02-04T01:56:54;37.35;;;8.05;;
59207;SDS011;44977;53.132;6.408;2023-02-04T02:01:55;34.50;;;8.10;;
59207;SDS011;44977;53.132;6.408;2023-02-04T02:06:56;32.55;;;7.68;;
59207;SDS011;44977;53.132;6.408;2023-02-04T02:12:00;31.50;;;6.88;;
59207;SDS011;44977;53.132;6.408;2023-02-04T02:17:03;35.63;;;8.25;;
59207;SDS011;44977;53.132;6.408;2023-02-04T02:22:17;34.03;;;7.18;;
59207;SDS011;44977;53.132;6.408;2023-02-04T02:27:20;35.67;;;7.20;;
59207;SDS011;44977;53.132;6.408;2023-02-04T02:32:22;37.70;;;7.95;;
59207;SDS011;44977;53.132;6.408;2023-02-04T02:37:22;35.25;;;7.95;;
59207;SDS011;44977;53.132;6.408;2023-02-04T02:42:23;35.83;;;7.68;;
59207;SDS011;44977;53.132;6.408;2023-02-04T02:47:24;36.40;;;7.82;;
59207;SDS011;44977;53.132;6.408;2023-02-04T02:52:27;38.47;;;8.20;;
59207;SDS011;44977;53.132;6.408;2023-02-04T02:57:28;39.03;;;8.30;;
59207;SDS011;44977;53.132;6.408;2023-02-04T03:02:28;39.50;;;9.13;;
59207;SDS011;44977;53.132;6.408;2023-02-04T03:07:29;37.85;;;8.05;;
59207;SDS011;44977;53.132;6.408;2023-02-04T03:12:30;34.80;;;7.90;;
59207;SDS011;44977;53.132;6.408;2023-02-04T03:17:31;40.78;;;8.88;;
59207;SDS011;44977;53.132;6.408;2023-02-04T03:22:32;34.83;;;7.85;;
59207;SDS011;44977;53.132;6.408;2023-02-04T03:27:33;43.47;;;9.18;;
59207;SDS011;44977;53.132;6.408;2023-02-04T03:32:34;41.60;;;9.23;;
59207;SDS011;44977;53.132;6.408;2023-02-04T03:37:34;37.35;;;7.65;;
59207;SDS011;44977;53.132;6.408;2023-02-04T03:42:35;33.47;;;7.93;;
59207;SDS011;44977;53.132;6.408;2023-02-04T03:47:36;36.40;;;8.73;;
59207;SDS011;44977;53.132;6.408;2023-02-04T03:52:37;32.78;;;7.55;;
59207;SDS011;44977;53.132;6.408;2023-02-04T03:57:37;40.53;;;9.25;;
59207;SDS011;44977;53.132;6.408;2023-02-04T04:02:38;43.97;;;9.05;;
59207;SDS011;44977;53.132;6.408;2023-02-04T04:07:40;37.90;;;8.10;;
59207;SDS011;44977;53.132;6.408;2023-02-04T04:12:40;33.17;;;7.93;;
59207;SDS011;44977;53.132;6.408;2023-02-04T04:17:41;41.67;;;8.55;;
59207;SDS011;44977;53.132;6.408;2023-02-04T04:22:42;33.92;;;7.75;;
59207;SDS011;44977;53.132;6.408;2023-02-04T04:27:42;32.95;;;7.53;;
59207;SDS011;44977;53.132;6.408;2023-02-04T04:32:43;33.35;;;7.78;;
59207;SDS011;44977;53.132;6.408;2023-02-04T04:37:44;39.00;;;7.60;;
59207;SDS011;44977;53.132;6.408;2023-02-04T04:42:44;31.02;;;7.35;;
59207;SDS011;44977;53.132;6.408;2023-02-04T04:47:45;32.67;;;7.97;;
59207;SDS011;44977;53.132;6.408;2023-02-04T04:52:46;31.02;;;7.10;;
59207;SDS011;44977;53.132;6.408;2023-02-04T04:57:47;34.33;;;7.13;;
59207;SDS011;44977;53.132;6.408;2023-02-04T05:02:47;40.22;;;8.40;;
59207;SDS011;44977;53.132;6.408;2023-02-04T05:07:48;37.05;;;8.05;;
59207;SDS011;44977;53.132;6.408;2023-02-04T05:12:49;33.10;;;7.25;;
59207;SDS011;44977;53.132;6.408;2023-02-04T05:17:49;32.28;;;7.07;;
59207;SDS011;44977;53.132;6.408;2023-02-04T05:22:50;35.58;;;7.40;;
59207;SDS011;44977;53.132;6.408;2023-02-04T05:27:51;26.70;;;7.38;;
59207;SDS011;44977;53.132;6.408;2023-02-04T05:32:51;30.13;;;7.00;;
59207;SDS011;44977;53.132;6.408;2023-02-04T05:37:52;35.35;;;7.03;;
59207;SDS011;44977;53.132;6.408;2023-02-04T05:42:53;29.98;;;7.03;;
59207;SDS011;44977;53.132;6.408;2023-02-04T05:47:53;30.05;;;7.00;;
59207;SDS011;44977;53.132;6.408;2023-02-04T05:52:54;31.17;;;6.93;;
59207;SDS011;44977;53.132;6.408;2023-02-04T05:57:55;32.97;;;7.45;;
59207;SDS011;44977;53.132;6.408;2023-02-04T06:02:56;28.15;;;6.78;;
59207;SDS011;44977;53.132;6.408;2023-02-04T06:07:56;31.58;;;7.78;;
59207;SDS011;44977;53.132;6.408;2023-02-04T06:12:57;31.13;;;7.50;;
59207;SDS011;44977;53.132;6.408;2023-02-04T06:17:58;29.80;;;7.10;;
59207;SDS011;44977;53.132;6.408;2023-02-04T06:22:59;35.70;;;8.10;;
59207;SDS011;44977;53.132;6.408;2023-02-04T06:27:59;32.15;;;7.13;;
59207;SDS011;44977;53.132;6.408;2023-02-04T06:33:00;25.65;;;6.57;;
59207;SDS011;44977;53.132;6.408;2023-02-04T06:38:01;24.92;;;5.63;;
59207;SDS011;44977;53.132;6.408;2023-02-04T06:43:01;26.67;;;6.07;;
59207;SDS011;44977;53.132;6.408;2023-02-04T06:48:02;21.38;;;5.00;;
59207;SDS011;44977;53.132;6.408;2023-02-04T06:53:03;17.85;;;5.20;;
59207;SDS011;44977;53.132;6.408;2023-02-04T06:58:03;19.40;;;5.30;;
59207;SDS011;44977;53.132;6.408;2023-02-04T07:03:04;21.13;;;5.95;;
59207;SDS011;44977;53.132;6.408;2023-02-04T07:08:06;18.67;;;5.50;;
59207;SDS011;44977;53.132;6.408;2023-02-04T07:13:07;17.25;;;5.03;;
59207;SDS011;44977;53.132;6.408;2023-02-04T07:18:07;16.98;;;4.20;;
59207;SDS011;44977;53.132;6.408;2023-02-04T07:23:08;17.85;;;3.90;;
59207;SDS011;44977;53.132;6.408;2023-02-04T07:28:09;18.35;;;4.22;;
59207;SDS011;44977;53.132;6.408;2023-02-04T07:33:09;19.65;;;4.60;;
59207;SDS011;44977;53.132;6.408;2023-02-04T07:38:10;18.77;;;4.30;;
59207;SDS011;44977;53.132;6.408;2023-02-04T07:43:11;17.23;;;4.30;;
59207;SDS011;44977;53.132;6.408;2023-02-04T07:48:11;17.70;;;4.18;;
59207;SDS011;44977;53.132;6.408;2023-02-04T07:53:12;18.15;;;3.80;;
59207;SDS011;44977;53.132;6.408;2023-02-04T07:58:13;18.33;;;4.03;;
59207;SDS011;44977;53.132;6.408;2023-02-04T08:03:14;19.90;;;4.22;;
59207;SDS011;44977;53.132;6.408;2023-02-04T08:08:15;18.70;;;4.10;;
59207;SDS011;44977;53.132;6.408;2023-02-04T08:13:15;18.15;;;4.18;;
59207;SDS011;44977;53.132;6.408;2023-02-04T08:18:16;20.67;;;4.38;;
59207;SDS011;44977;53.132;6.408;2023-02-04T08:23:17;18.70;;;4.07;;
59207;SDS011;44977;53.132;6.408;2023-02-04T08:28:17;14.35;;;3.60;;
59207;SDS011;44977;53.132;6.408;2023-02-04T08:33:18;16.60;;;3.67;;
59207;SDS011;44977;53.132;6.408;2023-02-04T08:38:19;17.80;;;3.63;;
59207;SDS011;44977;53.132;6.408;2023-02-04T08:43:20;18.10;;;3.78;;
59207;SDS011;44977;53.132;6.408;2023-02-04T08:48:20;15.20;;;3.28;;
59207;SDS011;44977;53.132;6.408;2023-02-04T08:53:21;13.30;;;3.15;;
59207;SDS011;44977;53.132;6.408;2023-02-04T08:58:22;13.98;;;3.08;;
59207;SDS011;44977;53.132;6.408;2023-02-04T09:03:22;13.60;;;3.08;;
59207;SDS011;44977;53.132;6.408;2023-02-04T09:08:23;13.38;;;3.17;;
59207;SDS011;44977;53.132;6.408;2023-02-04T09:13:24;13.77;;;2.90;;
59207;SDS011;44977;53.132;6.408;2023-02-04T09:18:24;12.00;;;3.03;;
59207;SDS011;44977;53.132;6.408;2023-02-04T09:23:25;16.80;;;3.70;;
59207;SDS011;44977;53.132;6.408;2023-02-04T09:28:26;16.27;;;3.65;;
59207;SDS011;44977;53.132;6.408;2023-02-04T09:33:26;13.35;;;3.20;;
59207;SDS011;44977;53.132;6.408;2023-02-04T09:38:27;17.70;;;3.78;;
59207;SDS011;44977;53.132;6.408;2023-02-04T09:43:29;11.57;;;3.00;;
59207;SDS011;44977;53.132;6.408;2023-02-04T09:48:33;15.90;;;3.50;;
59207;SDS011;44977;53.132;6.408;2023-02-04T09:53:33;16.30;;;3.13;;
59207;SDS011;44977;53.132;6.408;2023-02-04T09:58:36;12.02;;;2.88;;
59207;SDS011;44977;53.132;6.408;2023-02-04T10:03:38;18.40;;;3.28;;
59207;SDS011;44977;53.132;6.408;2023-02-04T10:08:45;12.18;;;3.00;;
59207;SDS011;44977;53.132;6.408;2023-02-04T10:13:48;13.57;;;3.05;;
59207;SDS011;44977;53.132;6.408;2023-02-04T10:18:51;12.63;;;3.35;;
59207;SDS011;44977;53.132;6.408;2023-02-04T10:23:53;15.85;;;3.25;;
59207;SDS011;44977;53.132;6.408;2023-02-04T10:34:06;10.95;;;2.63;;
59207;SDS011;44977;53.132;6.408;2023-02-04T10:39:24;13.63;;;2.78;;
59207;SDS011;44977;53.132;6.408;2023-02-04T10:44:30;12.00;;;2.83;;
59207;SDS011;44977;53.132;6.408;2023-02-04T10:49:32;12.77;;;2.72;;
59207;SDS011;44977;53.132;6.408;2023-02-04T10:54:34;12.48;;;3.03;;
59207;SDS011;44977;53.132;6.408;2023-02-04T10:59:37;13.85;;;3.00;;
59207;SDS011;44977;53.132;6.408;2023-02-04T11:04:38;8.95;;;2.53;;
59207;SDS011;44977;53.132;6.408;2023-02-04T11:09:42;10.27;;;2.75;;
59207;SDS011;44977;53.132;6.408;2023-02-04T11:14:43;11.93;;;2.45;;
59207;SDS011;44977;53.132;6.408;2023-02-04T11:19:54;9.48;;;2.50;;
59207;SDS011;44977;53.132;6.408;2023-02-04T11:24:56;11.48;;;2.67;;
59207;SDS011;44977;53.132;6.408;2023-02-04T11:30:03;13.05;;;3.20;;
59207;SDS011;44977;53.132;6.408;2023-02-04T11:45:26;10.32;;;2.50;;
59207;SDS011;44977;53.132;6.408;2023-02-04T11:55:34;12.35;;;2.30;;
59207;SDS011;44977;53.132;6.408;2023-02-04T12:00:36;10.60;;;2.40;;
59207;SDS011;44977;53.132;6.408;2023-02-04T12:05:38;13.15;;;2.67;;
59207;SDS011;44977;53.132;6.408;2023-02-04T12:10:46;12.18;;;2.58;;
59207;SDS011;44977;53.132;6.408;2023-02-04T12:15:54;10.68;;;2.17;;
59207;SDS011;44977;53.132;6.408;2023-02-04T12:20:58;11.30;;;2.70;;
59207;SDS011;44977;53.132;6.408;2023-02-04T12:26:02;8.25;;;2.22;;
59207;SDS011;44977;53.132;6.408;2023-02-04T12:31:03;10.13;;;2.30;;
59207;SDS011;44977;53.132;6.408;2023-02-04T12:36:04;11.68;;;2.72;;
59207;SDS011;44977;53.132;6.408;2023-02-04T12:41:05;11.93;;;2.40;;
59207;SDS011;44977;53.132;6.408;2023-02-04T12:46:05;10.90;;;2.42;;
59207;SDS011;44977;53.132;6.408;2023-02-04T12:51:06;12.05;;;2.30;;
59207;SDS011;44977;53.132;6.408;2023-02-04T12:56:07;8.98;;;2.22;;
59207;SDS011;44977;53.132;6.408;2023-02-04T13:01:08;10.43;;;1.90;;
59207;SDS011;44977;53.132;6.408;2023-02-04T13:06:08;8.43;;;1.80;;
59207;SDS011;44977;53.132;6.408;2023-02-04T13:11:09;12.60;;;2.58;;
59207;SDS011;44977;53.132;6.408;2023-02-04T13:16:10;9.77;;;2.13;;
59207;SDS011;44977;53.132;6.408;2023-02-04T13:21:11;10.38;;;2.13;;
59207;SDS011;44977;53.132;6.408;2023-02-04T13:26:12;9.48;;;2.22;;
59207;SDS011;44977;53.132;6.408;2023-02-04T13:31:13;9.35;;;1.90;;
59207;SDS011;44977;53.132;6.408;2023-02-04T13:36:13;9.18;;;2.15;;
59207;SDS011;44977;53.132;6.408;2023-02-04T13:41:14;9.80;;;2.00;;
59207;SDS011;44977;53.132;6.408;2023-02-04T13:46:15;7.10;;;1.70;;
59207;SDS011;44977;53.132;6.408;2023-02-04T13:51:15;8.82;;;2.03;;
59207;SDS011;44977;53.132;6.408;2023-02-04T13:56:16;7.50;;;1.83;;
59207;SDS011;44977;53.132;6.408;2023-02-04T14:01:17;8.32;;;1.77;;
59207;SDS011;44977;53.132;6.408;2023-02-04T14:06:18;8.68;;;1.73;;
59207;SDS011;44977;53.132;6.408;2023-02-04T14:11:20;9.00;;;1.88;;
59207;SDS011;44977;53.132;6.408;2023-02-04T14:16:21;8.75;;;1.77;;
59207;SDS011;44977;53.132;6.408;2023-02-04T14:21:22;9.35;;;2.03;;
59207;SDS011;44977;53.132;6.408;2023-02-04T14:26:22;9.02;;;2.00;;
59207;SDS011;44977;53.132;6.408;2023-02-04T14:31:23;9.05;;;1.73;;
59207;SDS011;44977;53.132;6.408;2023-02-04T14:36:24;9.60;;;1.73;;
59207;SDS011;44977;53.132;6.408;2023-02-04T14:41:27;7.03;;;2.00;;
59207;SDS011;44977;53.132;6.408;2023-02-04T14:46:30;8.10;;;1.95;;
59207;SDS011;44977;53.132;6.408;2023-02-04T14:51:30;7.25;;;1.73;;
59207;SDS011;44977;53.132;6.408;2023-02-04T14:56:31;9.25;;;1.77;;
59207;SDS011;44977;53.132;6.408;2023-02-04T15:01:32;10.30;;;2.33;;
59207;SDS011;44977;53.132;6.408;2023-02-04T15:06:33;7.70;;;1.50;;
59207;SDS011;44977;53.132;6.408;2023-02-04T15:11:33;8.02;;;1.65;;
59207;SDS011;44977;53.132;6.408;2023-02-04T15:16:34;9.30;;;1.90;;
59207;SDS011;44977;53.132;6.408;2023-02-04T15:21:35;8.88;;;2.15;;
59207;SDS011;44977;53.132;6.408;2023-02-04T15:26:36;8.20;;;1.70;;
59207;SDS011;44977;53.132;6.408;2023-02-04T15:31:37;7.15;;;1.70;;
59207;SDS011;44977;53.132;6.408;2023-02-04T15:36:38;8.10;;;1.92;;
59207;SDS011;44977;53.132;6.408;2023-02-04T15:41:39;8.50;;;2.08;;
59207;SDS011;44977;53.132;6.408;2023-02-04T15:46:39;6.55;;;1.65;;
59207;SDS011;44977;53.132;6.408;2023-02-04T15:51:40;7.20;;;1.85;;
59207;SDS011;44977;53.132;6.408;2023-02-04T15:56:41;6.90;;;2.30;;
59207;SDS011;44977;53.132;6.408;2023-02-04T16:01:41;9.98;;;3.13;;
59207;SDS011;44977;53.132;6.408;2023-02-04T16:06:42;7.40;;;2.45;;
59207;SDS011;44977;53.132;6.408;2023-02-04T16:11:43;7.43;;;2.55;;
59207;SDS011;44977;53.132;6.408;2023-02-04T16:16:43;6.35;;;2.55;;
59207;SDS011;44977;53.132;6.408;2023-02-04T16:21:44;6.57;;;2.30;;
59207;SDS011;44977;53.132;6.408;2023-02-04T16:26:45;6.40;;;2.50;;
59207;SDS011;44977;53.132;6.408;2023-02-04T16:31:46;8.93;;;5.50;;
59207;SDS011;44977;53.132;6.408;2023-02-04T16:36:46;11.48;;;6.95;;
59207;SDS011;44977;53.132;6.408;2023-02-04T16:41:47;10.75;;;6.63;;
59207;SDS011;44977;53.132;6.408;2023-02-04T16:46:48;10.02;;;4.55;;
59207;SDS011;44977;53.132;6.408;2023-02-04T16:51:49;7.82;;;3.45;;
59207;SDS011;44977;53.132;6.408;2023-02-04T16:56:50;7.88;;;3.83;;
59207;SDS011;44977;53.132;6.408;2023-02-04T17:01:54;8.38;;;3.50;;
59207;SDS011;44977;53.132;6.408;2023-02-04T17:06:56;7.82;;;3.65;;
59207;SDS011;44977;53.132;6.408;2023-02-04T17:11:59;6.68;;;3.05;;
59207;SDS011;44977;53.132;6.408;2023-02-04T17:17:00;7.65;;;3.75;;
59207;SDS011;44977;53.132;6.408;2023-02-04T17:22:00;8.98;;;5.53;;
59207;SDS011;44977;53.132;6.408;2023-02-04T17:27:01;10.82;;;6.57;;
59207;SDS011;44977;53.132;6.408;2023-02-04T17:32:02;11.15;;;5.75;;
59207;SDS011;44977;53.132;6.408;2023-02-04T17:37:03;8.82;;;5.28;;
59207;SDS011;44977;53.132;6.408;2023-02-04T17:42:03;9.48;;;4.82;;
59207;SDS011;44977;53.132;6.408;2023-02-04T17:47:04;9.00;;;4.82;;
59207;SDS011;44977;53.132;6.408;2023-02-04T17:52:05;10.00;;;5.18;;
59207;SDS011;44977;53.132;6.408;2023-02-04T17:57:18;11.00;;;5.90;;
59207;SDS011;44977;53.132;6.408;2023-02-04T18:02:24;8.85;;;4.93;;
59207;SDS011;44977;53.132;6.408;2023-02-04T18:07:28;8.60;;;5.78;;
59207;SDS011;44977;53.132;6.408;2023-02-04T18:12:29;9.15;;;5.95;;
59207;SDS011;44977;53.132;6.408;2023-02-04T18:17:29;8.68;;;5.68;;
59207;SDS011;44977;53.132;6.408;2023-02-04T18:22:31;10.38;;;6.22;;
59207;SDS011;44977;53.132;6.408;2023-02-04T18:27:32;11.18;;;6.13;;
59207;SDS011;44977;53.132;6.408;2023-02-04T18:32:36;9.38;;;6.18;;
59207;SDS011;44977;53.132;6.408;2023-02-04T18:37:45;11.02;;;6.63;;
59207;SDS011;44977;53.132;6.408;2023-02-04T18:42:47;13.10;;;7.78;;
59207;SDS011;44977;53.132;6.408;2023-02-04T18:47:49;10.35;;;7.53;;
59207;SDS011;44977;53.132;6.408;2023-02-04T18:52:52;9.95;;;6.95;;
59207;SDS011;44977;53.132;6.408;2023-02-04T18:57:53;9.05;;;6.13;;
59207;SDS011;44977;53.132;6.408;2023-02-04T19:02:55;8.70;;;6.03;;
59207;SDS011;44977;53.132;6.408;2023-02-04T19:13:16;8.50;;;6.13;;
59207;SDS011;44977;53.132;6.408;2023-02-04T19:18:39;14.18;;;10.20;;
59207;SDS011;44977;53.132;6.408;2023-02-04T19:23:41;10.98;;;7.70;;
59207;SDS011;44977;53.132;6.408;2023-02-04T19:28:42;10.05;;;6.78;;
59207;SDS011;44977;53.132;6.408;2023-02-04T19:33:43;9.52;;;6.60;;
59207;SDS011;44977;53.132;6.408;2023-02-04T19:38:44;10.60;;;6.82;;
59207;SDS011;44977;53.132;6.408;2023-02-04T19:43:47;9.63;;;6.43;;
59207;SDS011;44977;53.132;6.408;2023-02-04T19:48:47;13.18;;;9.60;;
59207;SDS011;44977;53.132;6.408;2023-02-04T19:53:49;13.95;;;11.07;;
59207;SDS011;44977;53.132;6.408;2023-02-04T19:58:51;11.05;;;9.32;;
59207;SDS011;44977;53.132;6.408;2023-02-04T20:03:52;10.63;;;8.38;;
59207;SDS011;44977;53.132;6.408;2023-02-04T20:24:19;12.23;;;7.83;;
59207;SDS011;44977;53.132;6.408;2023-02-04T20:29:20;9.23;;;7.10;;
59207;SDS011;44977;53.132;6.408;2023-02-04T20:34:22;12.65;;;8.38;;
59207;SDS011;44977;53.132;6.408;2023-02-04T20:44:32;12.98;;;10.82;;
59207;SDS011;44977;53.132;6.408;2023-02-04T20:49:38;13.35;;;10.00;;
59207;SDS011;44977;53.132;6.408;2023-02-04T20:54:40;12.15;;;10.50;;
59207;SDS011;44977;53.132;6.408;2023-02-04T20:59:40;12.68;;;10.48;;
59207;SDS011;44977;53.132;6.408;2023-02-04T21:04:41;13.32;;;9.88;;
59207;SDS011;44977;53.132;6.408;2023-02-04T21:09:46;12.45;;;10.18;;
59207;SDS011;44977;53.132;6.408;2023-02-04T21:14:47;12.65;;;9.73;;
59207;SDS011;44977;53.132;6.408;2023-02-04T21:19:48;10.50;;;8.55;;
59207;SDS011;44977;53.132;6.408;2023-02-04T21:24:48;12.77;;;9.57;;
59207;SDS011;44977;53.132;6.408;2023-02-04T21:29:49;13.50;;;9.70;;
59207;SDS011;44977;53.132;6.408;2023-02-04T21:34:49;12.40;;;9.45;;
59207;SDS011;44977;53.132;6.408;2023-02-04T21:39:50;13.68;;;11.18;;
59207;SDS011;44977;53.132;6.408;2023-02-04T21:44:51;12.65;;;9.23;;
59207;SDS011;44977;53.132;6.408;2023-02-04T21:49:52;11.95;;;9.50;;
59207;SDS011;44977;53.132;6.408;2023-02-04T21:54:52;11.15;;;8.85;;
59207;SDS011;44977;53.132;6.408;2023-02-04T21:59:53;12.60;;;8.43;;
59207;SDS011;44977;53.132;6.408;2023-02-04T22:04:54;12.57;;;8.25;;
59207;SDS011;44977;53.132;6.408;2023-02-04T22:09:54;10.90;;;8.57;;
59207;SDS011;44977;53.132;6.408;2023-02-04T22:14:55;11.35;;;8.18;;
59207;SDS011;44977;53.132;6.408;2023-02-04T22:20:15;10.98;;;8.95;;
59207;SDS011;44977;53.132;6.408;2023-02-04T22:25:17;11.68;;;9.02;;
59207;SDS011;44977;53.132;6.408;2023-02-04T22:30:22;12.00;;;8.35;;
59207;SDS011;44977;53.132;6.408;2023-02-04T22:35:23;12.15;;;8.90;;
59207;SDS011;44977;53.132;6.408;2023-02-04T22:40:26;11.35;;;8.68;;
59207;SDS011;44977;53.132;6.408;2023-02-04T22:45:26;10.27;;;8.32;;
59207;SDS011;44977;53.132;6.408;2023-02-04T22:50:27;10.93;;;8.73;;
59207;SDS011;44977;53.132;6.408;2023-02-04T22:55:28;12.00;;;9.35;;
59207;SDS011;44977;53.132;6.408;2023-02-04T23:00:28;14.55;;;11.05;;
59207;SDS011;44977;53.132;6.408;2023-02-04T23:05:29;13.73;;;9.98;;
59207;SDS011;44977;53.132;6.408;2023-02-04T23:10:30;12.18;;;9.57;;
59207;SDS011;44977;53.132;6.408;2023-02-04T23:15:30;12.25;;;9.25;;
59207;SDS011;44977;53.132;6.408;2023-02-04T23:20:31;11.82;;;9.20;;
59207;SDS011;44977;53.132;6.408;2023-02-04T23:25:33;13.90;;;9.77;;
59207;SDS011;44977;53.132;6.408;2023-02-04T23:30:34;13.52;;;9.55;;
59207;SDS011;44977;53.132;6.408;2023-02-04T23:35:34;14.48;;;9.63;;
59207;SDS011;44977;53.132;6.408;2023-02-04T23:40:35;14.23;;;9.95;;
59207;SDS011;44977;53.132;6.408;2023-02-04T23:45:36;15.23;;;9.55;;
59207;SDS011;44977;53.132;6.408;2023-02-04T23:50:37;13.05;;;10.20;;
59207;SDS011;44977;53.132;6.408;2023-02-04T23:55:38;14.07;;;10.32;;
